Terminal Aerodrome Forecast
Issued by NWS

Home | Current Version | Previous Version | Text Only | Print | Product List | Glossary On
Versions: 1 2 3 4 5 6 7 8 9 10 11 12 13 14 15 16 17 18 19 20 21 22 23 24 25 26 27 28 29 30 31 32 33 34 35 36 37 38 39
000
FTAK31 PAFA 271120
TAFASC
TAF
PASC 271120Z 2712/2812 23025G30KT 3/4SM -SN BLSN OVC020
     FM271800 27022KT 2SM BLSN BKN025 OVC035
     FM272100 27016KT 5SM BLSN BKN025 OVC045
     FM280000 27012KT P6SM SCT025 OVC100
     FM280600 18010KT P6SM SCT035 BKN060=

USA.gov is the U.S. government's official web portal to all federal, state and local government web resources and services.